Time;durP1;ratioP1;P1;durP2;ratioP2;P2;SDS_P1;SDS_P2;PMS_P1;PMS_P2;Temp;Humidity;BMP_temperature;BMP_pressure;BME280_temperature;BME280_humidity;BME280_pressure;Samples;Min_cycle;Max_cycle;Signal;HPM_P1;HPM_P2
2022/10/27 00:09:33;;;;;;;0.20;0.00;;;18.30;99.90;;;;;;26162467;22;20377;-70
2022/10/27 00:19:36;;;;;;;0.20;0.00;;;18.50;99.90;;;;;;26136077;22;20372;-70
2022/10/27 00:29:42;;;;;;;0.20;0.00;;;18.30;99.90;;;;;;26169684;22;21073;-71
2022/10/27 00:39:45;;;;;;;0.20;0.00;;;18.30;99.90;;;;;;26167737;22;20392;-70
2022/10/27 00:49:57;;;;;;;0.20;0.08;;;18.40;99.90;;;;;;26166627;22;20413;-70
2022/10/27 01:00:04;;;;;;;0.20;0.00;;;18.70;99.90;;;;;;26169245;22;20435;-70
2022/10/27 01:10:09;;;;;;;0.20;0.00;;;18.50;99.90;;;;;;26166938;22;20384;-69
2022/10/27 01:21:00;;;;;;;0.20;0.00;;;18.40;99.90;;;;;;26167589;22;20361;-70
2022/10/27 01:31:09;;;;;;;0.20;0.00;;;18.40;99.90;;;;;;26166841;22;20372;-69
2022/10/27 01:41:18;;;;;;;0.20;0.00;;;17.90;99.90;;;;;;26166665;22;20436;-69
2022/10/27 01:51:23;;;;;;;0.20;0.10;;;17.80;99.90;;;;;;26167884;22;20360;-69
2022/10/27 02:01:45;;;;;;;0.20;0.00;;;18.30;99.90;;;;;;26165511;22;20368;-69
2022/10/27 02:11:53;;;;;;;0.20;0.00;;;18.20;99.90;;;;;;26165634;22;20375;-68
2022/10/27 02:22:00;;;;;;;0.20;0.00;;;18.70;99.90;;;;;;26166668;22;20372;-69
2022/10/27 02:32:09;;;;;;;0.20;0.00;;;18.00;99.90;;;;;;26165750;22;20369;-69
2022/10/27 02:42:12;;;;;;;0.20;0.00;;;17.40;99.90;;;;;;26164397;22;20369;-70
2022/10/27 02:52:18;;;;;;;0.20;0.00;;;17.20;99.90;;;;;;26162192;22;20403;-69
2022/10/27 03:02:22;;;;;;;0.20;0.00;;;17.60;99.90;;;;;;26160337;22;20372;-69
2022/10/27 03:12:27;;;;;;;0.20;0.00;;;17.30;99.90;;;;;;26164580;22;20379;-69
2022/10/27 03:22:31;;;;;;;0.20;0.00;;;17.10;99.90;;;;;;26163247;22;20372;-70
2022/10/27 03:32:37;;;;;;;0.20;0.10;;;17.00;99.90;;;;;;26164230;22;20372;-69
2022/10/27 03:42:41;;;;;;;0.20;0.00;;;17.00;99.90;;;;;;26161712;22;20357;-68
2022/10/27 03:52:46;;;;;;;0.20;0.00;;;16.90;99.90;;;;;;26163288;22;20375;-69
2022/10/27 04:02:53;;;;;;;0.20;0.10;;;16.60;99.90;;;;;;26170699;22;20364;-70
2022/10/27 04:12:58;;;;;;;0.20;0.10;;;16.60;99.90;;;;;;26170462;22;20440;-70
2022/10/27 04:23:02;;;;;;;0.20;0.00;;;16.60;99.90;;;;;;26170361;22;20361;-70
2022/10/27 04:33:08;;;;;;;0.20;0.10;;;16.50;99.90;;;;;;26168450;22;20397;-70
2022/10/27 04:43:12;;;;;;;0.20;0.10;;;16.60;99.90;;;;;;26165717;22;20379;-69
2022/10/27 04:53:17;;;;;;;0.20;0.00;;;16.60;99.90;;;;;;26166857;22;20376;-70
2022/10/27 05:03:21;;;;;;;0.20;0.00;;;16.70;99.90;;;;;;26167370;22;20353;-70
2022/10/27 05:13:26;;;;;;;0.20;0.10;;;16.80;99.90;;;;;;26166005;22;20364;-70
2022/10/27 05:23:30;;;;;;;0.20;0.10;;;16.50;99.90;;;;;;26167208;22;20368;-70
2022/10/27 05:33:36;;;;;;;0.20;0.00;;;16.30;99.90;;;;;;26164775;22;20368;-71
2022/10/27 05:43:40;;;;;;;0.20;0.00;;;16.40;99.90;;;;;;26163031;22;20369;-70
2022/10/27 05:53:50;;;;;;;0.20;0.00;;;16.60;99.90;;;;;;26158673;22;20368;-70
2022/10/27 06:03:53;;;;;;;0.20;0.00;;;16.70;99.90;;;;;;26156168;22;20365;-70
2022/10/27 06:13:59;;;;;;;0.20;0.03;;;16.70;99.90;;;;;;26162023;22;20384;-71
2022/10/27 06:24:03;;;;;;;0.20;0.00;;;16.60;99.90;;;;;;26158278;22;20368;-73
2022/10/27 06:34:08;;;;;;;0.20;0.00;;;16.50;99.90;;;;;;26159385;22;21024;-68
2022/10/27 06:44:12;;;;;;;0.20;0.03;;;16.60;99.90;;;;;;26157910;22;20365;-70
2022/10/27 06:54:17;;;;;;;0.20;0.10;;;16.80;99.90;;;;;;26159809;22;20372;-71
2022/10/27 07:04:21;;;;;;;0.20;0.00;;;17.30;99.90;;;;;;26157623;22;20368;-68
2022/10/27 07:14:26;;;;;;;0.20;0.10;;;18.30;99.90;;;;;;26158696;22;20413;-71
2022/10/27 07:24:30;;;;;;;0.20;0.00;;;19.00;99.90;;;;;;26160230;22;20360;-70
2022/10/27 07:34:35;;;;;;;0.20;0.10;;;19.80;99.90;;;;;;26166065;22;20378;-71
2022/10/27 07:44:39;;;;;;;0.20;0.00;;;20.00;99.90;;;;;;26167721;22;20369;-70
2022/10/27 07:54:45;;;;;;;0.20;0.00;;;19.90;99.90;;;;;;26168271;22;20384;-71
2022/10/27 08:04:48;;;;;;;0.20;0.00;;;19.70;99.90;;;;;;26168035;22;20349;-70
2022/10/27 08:14:54;;;;;;;0.20;0.10;;;19.60;99.90;;;;;;26169516;22;20456;-70
2022/10/27 08:24:58;;;;;;;0.20;0.00;;;19.70;99.90;;;;;;26166742;22;20357;-70
2022/10/27 08:35:04;;;;;;;0.20;0.00;;;20.00;99.90;;;;;;26161766;22;20380;-71
2022/10/27 08:45:12;;;;;;;0.20;0.05;;;20.10;99.90;;;;;;26162269;22;20357;-69
2022/10/27 08:55:23;;;;;;;0.20;0.00;;;20.30;99.90;;;;;;26162395;22;20365;-70
2022/10/27 09:05:37;;;;;;;0.20;0.03;;;20.30;99.90;;;;;;26165068;22;20364;-70
2022/10/27 09:15:44;;;;;;;0.20;0.10;;;20.50;99.90;;;;;;26163886;22;20369;-70
2022/10/27 09:25:51;;;;;;;0.20;0.00;;;20.50;99.90;;;;;;26161565;22;20365;-65
2022/10/27 09:35:58;;;;;;;0.20;0.10;;;20.60;99.90;;;;;;26161835;22;20474;-69
2022/10/27 09:46:06;;;;;;;0.20;0.00;;;20.70;99.90;;;;;;26160679;22;20367;-69
2022/10/27 09:56:15;;;;;;;0.20;0.00;;;21.00;99.90;;;;;;26158300;22;20453;-69
2022/10/27 10:06:27;;;;;;;0.20;0.10;;;21.10;99.90;;;;;;26161348;22;20353;-70
2022/10/27 10:16:32;;;;;;;0.20;0.00;;;21.90;99.90;;;;;;26161421;22;20372;-69
2022/10/27 10:26:36;;;;;;;0.20;0.10;;;22.20;99.90;;;;;;26159669;22;20371;-69
2022/10/27 10:36:42;;;;;;;0.20;0.00;;;21.80;99.90;;;;;;26159091;22;20368;-69
2022/10/27 10:46:52;;;;;;;0.20;0.00;;;22.40;99.90;;;;;;26156104;22;20356;-69
2022/10/27 10:56:58;;;;;;;0.20;0.00;;;22.30;99.90;;;;;;26131290;22;20369;-69
2022/10/27 11:07:06;;;;;;;0.20;0.00;;;22.50;99.90;;;;;;26159762;22;20796;-70
2022/10/27 11:17:11;;;;;;;0.20;0.00;;;22.90;99.90;;;;;;26158762;22;20364;-69
2022/10/27 11:27:18;;;;;;;0.20;0.10;;;23.10;99.90;;;;;;26159174;22;20356;-72
2022/10/27 11:37:32;;;;;;;0.30;0.30;;;23.20;99.90;;;;;;26158506;22;20361;-70
2022/10/27 11:47:43;;;;;;;0.20;0.00;;;23.70;99.90;;;;;;26158203;22;20357;-70
2022/10/27 11:57:53;;;;;;;0.20;0.00;;;23.80;99.90;;;;;;26154393;22;20361;-71
2022/10/27 12:08:07;;;;;;;0.20;0.07;;;23.80;99.90;;;;;;26156412;22;20368;-69
2022/10/27 12:18:21;;;;;;;0.20;0.00;;;24.10;99.90;;;;;;26158846;22;20365;-69
2022/10/27 12:28:27;;;;;;;0.20;0.00;;;24.70;99.90;;;;;;26161791;22;20369;-69
2022/10/27 12:38:38;;;;;;;0.20;0.00;;;24.50;99.90;;;;;;26158642;22;20372;-69
2022/10/27 12:48:53;;;;;;;0.20;0.00;;;24.60;99.90;;;;;;26159251;22;20376;-68
2022/10/27 12:59:11;;;;;;;0.20;0.00;;;24.70;99.90;;;;;;26161820;22;21210;-69
2022/10/27 13:09:37;;;;;;;0.20;0.00;;;24.00;99.90;;;;;;26164801;22;20381;-69
2022/10/27 13:19:49;;;;;;;0.20;0.00;;;23.80;99.90;;;;;;26162407;22;20360;-67
2022/10/27 13:29:58;;;;;;;0.20;0.03;;;24.30;99.90;;;;;;26162039;22;20365;-67
2022/10/27 13:40:23;;;;;;;0.20;0.00;;;23.60;99.90;;;;;;26160157;22;20361;-69
2022/10/27 13:50:35;;;;;;;0.20;0.10;;;24.60;99.90;;;;;;26160499;22;20365;-68
2022/10/27 14:01:16;;;;;;;0.20;0.00;;;25.00;99.90;;;;;;26159074;22;20365;-69
2022/10/27 14:11:25;;;;;;;0.20;0.00;;;26.00;99.90;;;;;;26158492;22;20373;-67
2022/10/27 14:21:35;;;;;;;0.20;0.00;;;25.10;99.90;;;;;;26158976;22;20361;-68
2022/10/27 14:31:38;;;;;;;0.20;0.10;;;25.20;99.90;;;;;;26159175;22;20371;-69
2022/10/27 14:41:47;;;;;;;0.20;0.00;;;25.50;99.90;;;;;;26156959;22;20364;-69
2022/10/27 14:51:53;;;;;;;0.20;0.00;;;25.20;99.90;;;;;;26156893;22;20369;-68
2022/10/27 15:01:58;;;;;;;0.20;0.00;;;24.10;99.90;;;;;;26157910;22;20356;-69
2022/10/27 15:12:04;;;;;;;0.20;0.00;;;23.10;99.90;;;;;;26157702;22;20403;-68
2022/10/27 15:22:10;;;;;;;0.20;0.00;;;22.50;99.90;;;;;;26157173;22;20365;-69
2022/10/27 15:32:21;;;;;;;0.20;0.00;;;22.30;99.90;;;;;;26156411;22;20369;-70
2022/10/27 15:42:29;;;;;;;0.20;0.00;;;22.10;99.90;;;;;;26154790;22;20444;-70
2022/10/27 15:52:38;;;;;;;0.20;0.00;;;22.10;99.90;;;;;;26157536;22;20387;-69
2022/10/27 16:02:46;;;;;;;0.20;0.00;;;22.10;99.90;;;;;;26163300;22;20391;-69
2022/10/27 16:12:51;;;;;;;0.20;0.00;;;22.10;99.90;;;;;;26161409;22;20380;-71
2022/10/27 16:22:56;;;;;;;0.20;0.00;;;22.10;99.90;;;;;;26162186;22;20417;-71
2022/10/27 16:33:02;;;;;;;0.20;0.00;;;21.80;99.90;;;;;;26161413;22;20375;-71
2022/10/27 16:43:21;;;;;;;0.20;0.00;;;21.60;99.90;;;;;;26158705;22;20369;-73
2022/10/27 16:53:25;;;;;;;0.20;0.00;;;21.40;99.90;;;;;;26157216;22;20401;-69
2022/10/27 17:03:30;;;;;;;0.20;0.00;;;21.40;99.90;;;;;;26156432;22;20372;-70
2022/10/27 17:13:34;;;;;;;0.20;0.00;;;21.10;99.90;;;;;;26155775;22;20364;-71
2022/10/27 17:23:41;;;;;;;0.20;0.00;;;21.10;99.90;;;;;;26160790;22;20371;-71
2022/10/27 17:33:45;;;;;;;0.20;0.00;;;21.00;99.90;;;;;;26160264;22;20376;-70
2022/10/27 17:43:51;;;;;;;0.20;0.00;;;21.00;99.90;;;;;;26162057;22;20357;-70
2022/10/27 17:53:54;;;;;;;0.20;0.00;;;20.80;99.90;;;;;;26160281;22;20373;-69
2022/10/27 18:04:04;;;;;;;0.20;0.00;;;20.90;99.90;;;;;;26160482;22;20357;-71
2022/10/27 18:14:14;;;;;;;0.20;0.00;;;20.80;99.90;;;;;;26159394;22;20376;-71
2022/10/27 18:24:20;;;;;;;0.20;0.00;;;20.60;99.90;;;;;;26157321;22;20364;-70
2022/10/27 18:34:25;;;;;;;0.20;0.00;;;20.20;99.90;;;;;;26155761;22;20372;-70
2022/10/27 18:44:30;;;;;;;0.20;0.00;;;19.60;99.90;;;;;;26155405;22;20367;-71
2022/10/27 18:54:34;;;;;;;0.20;0.00;;;19.20;99.90;;;;;;26158667;22;20416;-71
2022/10/27 19:04:39;;;;;;;0.20;0.00;;;19.10;99.90;;;;;;26156988;22;20365;-70
2022/10/27 19:14:43;;;;;;;0.20;0.00;;;19.00;99.90;;;;;;26157485;22;20364;-72
2022/10/27 19:24:49;;;;;;;0.20;0.00;;;18.70;99.90;;;;;;26162028;22;20357;-69
2022/10/27 19:34:53;;;;;;;0.20;0.00;;;18.60;99.90;;;;;;26172872;22;20360;-70
2022/10/27 19:45:00;;;;;;;0.20;0.00;;;18.40;99.90;;;;;;26173604;22;20372;-71
2022/10/27 19:55:05;;;;;;;0.20;0.10;;;18.10;99.90;;;;;;26172450;22;20360;-70
2022/10/27 20:05:10;;;;;;;0.20;0.05;;;17.80;99.90;;;;;;26172669;22;20372;-70
2022/10/27 20:15:14;;;;;;;0.20;0.00;;;17.70;99.90;;;;;;26169763;22;20365;-71
2022/10/27 20:25:19;;;;;;;0.20;0.00;;;17.70;99.90;;;;;;26171591;22;20388;-70
2022/10/27 20:35:23;;;;;;;0.20;0.00;;;17.70;99.90;;;;;;26170267;22;20399;-69
2022/10/27 20:45:29;;;;;;;0.20;0.00;;;17.80;99.90;;;;;;26163727;22;20361;-71
2022/10/27 20:55:33;;;;;;;0.20;0.00;;;18.10;99.90;;;;;;26162658;22;20364;-70
2022/10/27 21:05:39;;;;;;;0.20;0.00;;;18.30;99.90;;;;;;26166632;22;20391;-70
2022/10/27 21:15:43;;;;;;;0.20;0.00;;;18.40;99.90;;;;;;26162600;22;20429;-69
2022/10/27 21:25:48;;;;;;;0.20;0.00;;;18.70;99.90;;;;;;26162724;22;20372;-69
2022/10/27 21:35:52;;;;;;;0.20;0.03;;;18.50;99.90;;;;;;26159720;22;20373;-71
2022/10/27 21:45:57;;;;;;;0.20;0.00;;;18.30;99.90;;;;;;26158032;22;20353;-71
2022/10/27 21:56:03;;;;;;;0.20;0.00;;;18.30;99.90;;;;;;26164796;22;20401;-69
2022/10/27 22:06:12;;;;;;;0.20;0.00;;;18.30;99.90;;;;;;26164652;22;20361;-70
2022/10/27 22:16:18;;;;;;;0.20;0.10;;;18.20;99.90;;;;;;26165824;22;20369;-70
2022/10/27 22:26:23;;;;;;;0.20;0.00;;;18.00;99.90;;;;;;26135921;22;20357;-71
2022/10/27 22:36:29;;;;;;;0.20;0.00;;;17.70;99.90;;;;;;26162846;22;20369;-70
2022/10/27 22:46:35;;;;;;;0.20;0.00;;;17.70;99.90;;;;;;26165183;22;20373;-68
2022/10/27 22:56:38;;;;;;;0.20;0.10;;;17.40;99.90;;;;;;26163402;22;20368;-69
2022/10/27 23:06:44;;;;;;;0.20;0.10;;;17.30;99.90;;;;;;26163682;22;20410;-70
2022/10/27 23:16:48;;;;;;;0.20;0.00;;;17.20;99.90;;;;;;26161975;22;20380;-69
2022/10/27 23:26:53;;;;;;;0.20;0.00;;;17.40;99.90;;;;;;26163499;22;20372;-69
2022/10/27 23:36:57;;;;;;;0.20;0.00;;;17.40;99.90;;;;;;26160870;22;20384;-69
2022/10/27 23:47:02;;;;;;;0.20;0.00;;;17.50;99.90;;;;;;26164066;22;20459;-69
2022/10/27 23:57:06;;;;;;;0.20;0.00;;;17.50;99.90;;;;;;26162633;22;20372;-69
